createdAt,value
2019-05-26T00:00:59.360Z,83.37
2019-05-26T00:03:27.866Z,83.49
2019-05-26T00:05:56.473Z,83.43
2019-05-26T00:08:24.942Z,83.41
2019-05-26T00:10:53.486Z,83.31
2019-05-26T00:13:21.974Z,83.23
2019-05-26T00:15:50.791Z,83.03
2019-05-26T00:18:19.485Z,82.86
2019-05-26T00:20:48.142Z,82.82
2019-05-26T00:23:16.821Z,82.82
2019-05-26T00:25:45.380Z,82.97
2019-05-26T00:28:13.918Z,83.37
2019-05-26T00:30:42.529Z,83.50
2019-05-26T00:33:11.015Z,83.65
2019-05-26T00:35:39.608Z,83.84
2019-05-26T00:38:08.201Z,83.87
2019-05-26T00:40:36.839Z,83.98
2019-05-26T00:43:05.453Z,84.04
2019-05-26T00:45:34.103Z,83.99
2019-05-26T00:48:03.079Z,84.09
2019-05-26T00:50:31.700Z,84.22
2019-05-26T00:53:00.350Z,84.28
2019-05-26T00:55:28.996Z,84.29
2019-05-26T00:57:57.554Z,84.17
2019-05-26T01:00:40.581Z,83.85
2019-05-26T01:03:10.003Z,83.66
2019-05-26T01:05:38.660Z,83.63
2019-05-26T01:08:08.274Z,83.68
2019-05-26T01:10:37.363Z,83.79
2019-05-26T01:13:07.167Z,83.70
2019-05-26T01:15:35.776Z,83.76
2019-05-26T01:18:05.483Z,83.74
2019-05-26T01:20:34.048Z,83.67
2019-05-26T01:23:02.628Z,83.57
2019-05-26T01:25:31.345Z,83.77
2019-05-26T01:27:59.964Z,83.97
2019-05-26T01:30:36.919Z,83.92
2019-05-26T01:33:06.841Z,83.91
2019-05-26T01:35:38.720Z,84.00
2019-05-26T01:38:22.314Z,84.16
2019-05-26T01:40:41.457Z,84.17
2019-05-26T01:43:10.333Z,84.37
2019-05-26T01:45:39.084Z,84.45
2019-05-26T01:48:08.266Z,84.48
2019-05-26T01:50:37.705Z,84.42
2019-05-26T01:53:06.987Z,84.57
2019-05-26T01:55:35.900Z,84.73
2019-05-26T01:58:05.318Z,84.94
2019-05-26T02:00:37.161Z,85.26
2019-05-26T02:03:06.171Z,85.19
2019-05-26T02:05:34.855Z,85.17
2019-05-26T02:08:03.726Z,85.12
2019-05-26T02:10:32.392Z,85.01
2019-05-26T02:13:00.871Z,84.80
2019-05-26T02:15:31.331Z,84.77
2019-05-26T02:17:59.939Z,84.60
2019-05-26T02:20:28.547Z,84.62
2019-05-26T02:22:57.083Z,84.75
2019-05-26T02:25:26.370Z,84.90
2019-05-26T02:27:54.913Z,84.93
2019-05-26T02:30:24.662Z,85.08
2019-05-26T02:32:53.204Z,85.06
2019-05-26T02:35:23.524Z,84.86
2019-05-26T02:37:52.086Z,84.70
2019-05-26T02:40:21.808Z,84.56
2019-05-26T02:42:50.448Z,84.49
2019-05-26T02:45:20.385Z,84.41
2019-05-26T02:47:49.107Z,84.43
2019-05-26T02:50:19.027Z,84.44
2019-05-26T02:52:47.577Z,84.45
2019-05-26T02:55:16.855Z,84.43
2019-05-26T02:57:45.458Z,84.33
2019-05-26T03:00:17.001Z,84.50
2019-05-26T03:02:46.055Z,84.73
2019-05-26T03:05:14.750Z,84.93
2019-05-26T03:07:44.032Z,85.21
2019-05-26T03:10:15.323Z,85.33
2019-05-26T03:12:44.373Z,85.53
2019-05-26T03:15:15.716Z,85.63
2019-05-26T03:17:45.817Z,85.75
2019-05-26T03:20:15.184Z,85.56
2019-05-26T03:22:45.560Z,85.42
2019-05-26T03:25:14.552Z,85.21
2019-05-26T03:27:43.185Z,85.03
2019-05-26T03:30:11.947Z,84.87
2019-05-26T03:32:40.550Z,84.89
2019-05-26T03:35:09.750Z,84.84
2019-05-26T03:37:38.551Z,84.84
2019-05-26T03:40:10.439Z,84.72
2019-05-26T03:42:39.100Z,84.66
2019-05-26T03:45:08.516Z,84.52
2019-05-26T03:47:37.066Z,84.42
2019-05-26T03:50:07.712Z,84.32
2019-05-26T03:52:36.311Z,84.40
2019-05-26T03:55:06.938Z,84.45
2019-05-26T03:57:35.489Z,84.55
2019-05-26T04:00:06.677Z,84.73
2019-05-26T04:02:35.349Z,84.71
2019-05-26T04:05:05.574Z,84.65
2019-05-26T04:07:34.227Z,84.87
2019-05-26T04:10:06.199Z,84.78
2019-05-26T04:12:35.294Z,84.70
2019-05-26T04:15:05.717Z,84.52
2019-05-26T04:17:34.328Z,84.45
2019-05-26T04:20:02.958Z,84.37
2019-05-26T04:22:31.424Z,84.36
2019-05-26T04:24:59.978Z,84.42
2019-05-26T04:27:28.515Z,84.41
2019-05-26T04:29:57.049Z,84.36
2019-05-26T04:32:25.662Z,84.19
2019-05-26T04:34:54.232Z,83.93
2019-05-26T04:37:23.039Z,83.72
2019-05-26T04:39:51.557Z,83.65
2019-05-26T04:42:20.364Z,83.58
2019-05-26T04:44:49.681Z,83.40
2019-05-26T04:47:18.289Z,83.38
2019-05-26T04:49:48.553Z,83.29
2019-05-26T04:52:17.037Z,83.12
2019-05-26T04:54:45.611Z,83.01
2019-05-26T04:57:14.349Z,82.99
2019-05-26T04:59:45.523Z,82.84
2019-05-26T05:02:14.382Z,82.47
2019-05-26T05:04:43.001Z,82.21
2019-05-26T05:07:11.552Z,82.00
2019-05-26T05:09:40.102Z,81.66
2019-05-26T05:12:08.654Z,81.46
2019-05-26T05:14:37.264Z,81.49
2019-05-26T05:17:05.908Z,81.22
2019-05-26T05:19:34.992Z,81.39
2019-05-26T05:22:03.634Z,81.28
2019-05-26T05:24:32.170Z,80.98
2019-05-26T05:27:00.812Z,80.74
2019-05-26T05:29:29.277Z,80.41
2019-05-26T05:31:57.844Z,80.06
2019-05-26T05:34:26.361Z,79.98
2019-05-26T05:36:55.007Z,79.88
2019-05-26T05:39:23.620Z,79.67
2019-05-26T05:41:52.200Z,79.43
2019-05-26T05:44:22.373Z,78.90
2019-05-26T05:46:50.980Z,78.49
2019-05-26T05:49:19.472Z,78.26
2019-05-26T05:51:48.173Z,78.24
2019-05-26T05:54:16.743Z,78.05
2019-05-26T05:56:45.296Z,77.63
2019-05-26T05:59:13.776Z,77.61
2019-05-26T06:01:42.416Z,77.32
2019-05-26T06:04:11.080Z,76.93
2019-05-26T06:06:39.813Z,76.17
2019-05-26T06:09:08.601Z,75.70
2019-05-26T06:11:37.081Z,75.16
2019-05-26T06:14:05.994Z,75.11
2019-05-26T06:16:34.565Z,74.94
2019-05-26T06:19:03.123Z,74.15
2019-05-26T06:21:31.727Z,73.73
2019-05-26T06:24:02.711Z,73.74
2019-05-26T06:26:31.333Z,73.16
2019-05-26T06:28:59.804Z,72.44
2019-05-26T06:31:28.713Z,72.76
2019-05-26T06:34:00.061Z,72.68
2019-05-26T06:36:28.612Z,72.56
2019-05-26T06:38:57.255Z,72.10
2019-05-26T06:41:33.458Z,71.39
2019-05-26T06:43:56.071Z,70.58
2019-05-26T06:46:24.681Z,70.19
2019-05-26T06:48:53.295Z,69.87
2019-05-26T06:51:23.259Z,69.19
2019-05-26T06:53:53.997Z,68.54
2019-05-26T06:56:22.344Z,67.78
2019-05-26T06:58:50.990Z,66.55
2019-05-26T07:01:19.636Z,65.72
2019-05-26T07:03:48.413Z,65.20
2019-05-26T07:06:16.983Z,64.41
2019-05-26T07:08:45.865Z,63.28
2019-05-26T07:11:14.448Z,62.28
2019-05-26T07:13:43.062Z,61.95
2019-05-26T07:16:11.540Z,61.69
2019-05-26T07:18:40.081Z,61.00
2019-05-26T07:21:08.697Z,60.48
2019-05-26T07:23:37.338Z,58.46
2019-05-26T07:26:05.989Z,58.46
2019-05-26T07:28:34.461Z,58.44
2019-05-26T07:31:03.107Z,57.18
2019-05-26T07:33:31.712Z,57.17
2019-05-26T07:36:00.362Z,56.12
2019-05-26T07:38:28.974Z,54.72
2019-05-26T07:40:57.608Z,55.52
2019-05-26T07:43:28.165Z,54.45
2019-05-26T07:45:56.374Z,54.47
2019-05-26T07:48:24.976Z,53.68
2019-05-26T07:50:53.538Z,52.70
2019-05-26T07:53:22.110Z,52.29
2019-05-26T07:55:50.651Z,52.18
2019-05-26T07:58:19.286Z,52.13
2019-05-26T08:00:47.845Z,51.27
2019-05-26T08:03:16.488Z,51.36
2019-05-26T08:05:45.083Z,50.16
2019-05-26T08:08:13.865Z,49.72
2019-05-26T08:10:42.486Z,49.99
2019-05-26T08:13:11.195Z,49.72
2019-05-26T08:15:39.739Z,49.61
2019-05-26T08:18:08.381Z,49.23
2019-05-26T08:20:37.083Z,48.77
2019-05-26T08:23:05.692Z,48.98
2019-05-26T08:25:34.571Z,48.99
2019-05-26T08:28:03.107Z,48.75
2019-05-26T08:30:31.719Z,49.01
2019-05-26T08:33:00.358Z,49.17
2019-05-26T08:35:29.234Z,47.94
2019-05-26T08:37:57.842Z,47.18
2019-05-26T08:40:26.648Z,46.47
2019-05-26T08:42:55.265Z,45.48
2019-05-26T08:45:23.853Z,45.31
2019-05-26T08:47:53.065Z,45.24
2019-05-26T08:50:23.189Z,44.33
2019-05-26T08:52:51.842Z,43.84
2019-05-26T08:55:21.250Z,43.40
2019-05-26T08:57:49.785Z,40.39
2019-05-26T09:00:19.191Z,39.69
2019-05-26T09:02:52.409Z,40.92
2019-05-26T09:05:21.826Z,40.46
2019-05-26T09:07:50.487Z,39.83
2019-05-26T09:10:20.119Z,39.99
2019-05-26T09:13:00.186Z,39.54
2019-05-26T09:15:19.652Z,38.47
2019-05-26T09:17:48.265Z,37.50
2019-05-26T09:20:18.847Z,37.90
2019-05-26T09:22:47.475Z,37.75
2019-05-26T09:25:16.474Z,36.78
2019-05-26T09:27:45.842Z,37.44
2019-05-26T09:30:14.506Z,35.80
2019-05-26T09:32:43.137Z,36.21
2019-05-26T09:35:12.140Z,35.89
2019-05-26T09:37:40.800Z,35.82
2019-05-26T09:40:10.753Z,36.11
2019-05-26T09:42:39.356Z,37.04
2019-05-26T09:45:09.134Z,36.10
2019-05-26T09:47:37.744Z,36.03
2019-05-26T09:50:07.360Z,35.86
2019-05-26T09:52:36.469Z,35.83
2019-05-26T09:55:07.158Z,35.66
2019-05-26T09:57:35.799Z,35.35
2019-05-26T10:00:07.094Z,34.67
2019-05-26T10:02:35.741Z,34.54
2019-05-26T10:05:05.843Z,34.68
2019-05-26T10:07:34.520Z,35.65
2019-05-26T10:10:04.551Z,34.52
2019-05-26T10:12:33.159Z,33.95
2019-05-26T10:15:01.758Z,34.38
2019-05-26T10:17:30.271Z,35.20
2019-05-26T10:19:59.181Z,35.18
2019-05-26T10:22:27.793Z,35.62
2019-05-26T10:24:56.327Z,34.22
2019-05-26T10:27:24.933Z,33.24
2019-05-26T10:29:53.471Z,33.80
2019-05-26T10:32:21.936Z,35.00
2019-05-26T10:34:51.340Z,34.41
2019-05-26T10:37:19.776Z,33.47
2019-05-26T10:39:48.435Z,34.30
2019-05-26T10:42:17.373Z,33.29
2019-05-26T10:44:45.840Z,33.49
2019-05-26T10:47:14.576Z,33.25
2019-05-26T10:49:43.191Z,33.85
2019-05-26T10:52:11.692Z,34.28
2019-05-26T10:54:40.295Z,34.99
2019-05-26T10:57:09.241Z,34.51
2019-05-26T10:59:37.704Z,33.75
2019-05-26T11:02:06.453Z,34.12
2019-05-26T11:04:35.177Z,35.65
2019-05-26T11:07:04.157Z,35.29
2019-05-26T11:09:32.770Z,35.13
2019-05-26T11:12:01.384Z,34.33
2019-05-26T11:14:32.031Z,33.50
2019-05-26T11:17:00.329Z,32.64
2019-05-26T11:19:28.941Z,32.98
2019-05-26T11:21:57.456Z,33.00
2019-05-26T11:24:25.919Z,33.73
2019-05-26T11:26:54.583Z,34.78
2019-05-26T11:29:24.785Z,36.94
2019-05-26T11:31:53.402Z,38.31
2019-05-26T11:34:21.938Z,38.99
2019-05-26T11:36:50.606Z,40.20
2019-05-26T11:39:20.794Z,41.63
2019-05-26T11:41:54.973Z,41.53
2019-05-26T11:44:19.538Z,42.55
2019-05-26T11:46:48.131Z,42.40
2019-05-26T11:49:16.689Z,42.87
2019-05-26T11:51:45.353Z,43.51
2019-05-26T11:54:13.963Z,44.29
2019-05-26T11:56:42.507Z,45.00
2019-05-26T11:59:13.539Z,45.51
2019-05-26T12:01:42.428Z,45.85
2019-05-26T12:04:11.023Z,45.07
2019-05-26T12:06:39.573Z,45.91
2019-05-26T12:09:09.507Z,46.43
2019-05-26T12:11:38.236Z,46.28
2019-05-26T12:14:06.857Z,46.24
2019-05-26T12:16:35.543Z,46.33
2019-05-26T12:19:04.223Z,45.19
2019-05-26T12:21:32.642Z,45.16
2019-05-26T12:24:01.217Z,45.13
2019-05-26T12:26:29.753Z,44.81
2019-05-26T12:28:58.418Z,45.58
2019-05-26T12:31:27.023Z,45.53
2019-05-26T12:33:55.476Z,45.81
2019-05-26T12:36:24.086Z,44.30
2019-05-26T12:38:52.644Z,44.78
2019-05-26T12:41:22.594Z,45.22
2019-05-26T12:43:51.233Z,45.46
2019-05-26T12:46:19.841Z,43.93
2019-05-26T12:48:48.549Z,43.70
2019-05-26T12:51:17.442Z,44.09
2019-05-26T12:53:46.021Z,43.48
2019-05-26T12:56:15.273Z,43.62
2019-05-26T12:58:43.893Z,43.40
2019-05-26T13:01:13.927Z,44.06
2019-05-26T13:03:44.640Z,43.76
2019-05-26T13:06:13.246Z,44.63
2019-05-26T13:08:41.719Z,45.52
2019-05-26T13:11:10.271Z,45.94
2019-05-26T13:13:38.893Z,46.50
2019-05-26T13:16:07.659Z,46.40
2019-05-26T13:18:36.193Z,46.93
2019-05-26T13:21:04.997Z,47.08
2019-05-26T13:23:33.530Z,47.33
2019-05-26T13:26:02.097Z,47.19
2019-05-26T13:28:30.635Z,47.56
2019-05-26T13:30:59.452Z,46.98
2019-05-26T13:33:27.912Z,47.68
2019-05-26T13:35:56.446Z,46.97
2019-05-26T13:38:25.066Z,46.42
2019-05-26T13:40:53.710Z,46.72
2019-05-26T13:43:22.329Z,46.72
2019-05-26T13:45:50.870Z,46.92
2019-05-26T13:48:19.408Z,47.18
2019-05-26T13:50:47.946Z,47.09
2019-05-26T13:53:16.574Z,46.96
2019-05-26T13:55:45.043Z,46.99
2019-05-26T13:58:13.607Z,47.01
2019-05-26T14:00:42.135Z,46.73
2019-05-26T14:03:10.871Z,46.54
2019-05-26T14:05:39.473Z,46.49
2019-05-26T14:08:08.125Z,46.36
2019-05-26T14:10:39.998Z,46.35
2019-05-26T14:13:08.933Z,46.19
2019-05-26T14:15:39.441Z,46.16
2019-05-26T14:18:08.584Z,46.33
2019-05-26T14:20:41.810Z,46.61
2019-05-26T14:23:13.046Z,47.38
2019-05-26T14:25:41.686Z,47.70
2019-05-26T14:28:11.760Z,48.17
2019-05-26T14:30:40.414Z,48.74
2019-05-26T14:33:09.023Z,48.66
2019-05-26T14:35:37.788Z,48.78
2019-05-26T14:38:06.522Z,48.45
2019-05-26T14:40:35.143Z,48.94
2019-05-26T14:43:03.683Z,49.06
2019-05-26T14:45:32.385Z,49.27
2019-05-26T14:48:00.986Z,49.24
2019-05-26T14:50:29.613Z,49.76
2019-05-26T14:52:58.418Z,50.03
2019-05-26T14:55:28.899Z,50.13
2019-05-26T14:58:13.858Z,50.21
2019-05-26T15:00:28.153Z,50.20
2019-05-26T15:02:56.913Z,50.47
2019-05-26T15:05:25.523Z,49.62
2019-05-26T15:07:54.166Z,49.44
2019-05-26T15:10:22.927Z,50.87
2019-05-26T15:12:51.452Z,52.31
2019-05-26T15:15:20.271Z,52.79
2019-05-26T15:17:48.916Z,53.41
2019-05-26T15:20:17.956Z,54.21
2019-05-26T15:22:46.425Z,54.58
2019-05-26T15:25:16.923Z,55.12
2019-05-26T15:27:46.679Z,55.49
2019-05-26T15:30:16.626Z,56.01
2019-05-26T15:32:45.237Z,56.20
2019-05-26T15:35:14.244Z,56.45
2019-05-26T15:37:42.918Z,56.33
2019-05-26T15:40:11.828Z,56.53
2019-05-26T15:42:40.367Z,56.56
2019-05-26T15:45:09.981Z,56.62
2019-05-26T15:47:38.657Z,56.83
2019-05-26T15:50:09.245Z,56.91
2019-05-26T15:52:37.783Z,57.04
2019-05-26T15:55:06.856Z,57.23
2019-05-26T15:57:35.476Z,57.66
2019-05-26T16:00:09.422Z,57.97
2019-05-26T16:02:37.945Z,58.33
2019-05-26T16:05:07.354Z,58.71
2019-05-26T16:07:35.943Z,58.74
2019-05-26T16:10:09.038Z,59.69
2019-05-26T16:12:37.644Z,61.01
2019-05-26T16:15:08.328Z,61.50
2019-05-26T16:17:38.963Z,61.78
2019-05-26T16:20:11.147Z,62.84
2019-05-26T16:22:39.962Z,63.25
2019-05-26T16:25:10.067Z,63.37
2019-05-26T16:27:38.630Z,64.11
2019-05-26T16:30:10.792Z,64.88
2019-05-26T16:32:39.414Z,65.08
2019-05-26T16:35:08.064Z,65.10
2019-05-26T16:37:36.564Z,65.86
2019-05-26T16:40:06.929Z,66.25
2019-05-26T16:42:35.563Z,66.73
2019-05-26T16:45:06.644Z,67.22
2019-05-26T16:47:35.361Z,67.52
2019-05-26T16:50:08.265Z,67.81
2019-05-26T16:52:37.245Z,67.98
2019-05-26T16:55:07.155Z,68.23
2019-05-26T16:57:35.995Z,68.85
2019-05-26T17:00:06.806Z,68.79
2019-05-26T17:02:35.351Z,69.27
2019-05-26T17:05:05.023Z,69.91
2019-05-26T17:07:33.632Z,70.76
2019-05-26T17:10:02.233Z,71.33
2019-05-26T17:12:30.802Z,71.40
2019-05-26T17:14:59.338Z,70.87
2019-05-26T17:17:28.089Z,70.98
2019-05-26T17:19:56.701Z,71.51
2019-05-26T17:22:26.976Z,72.04
2019-05-26T17:24:55.453Z,72.29
2019-05-26T17:27:24.060Z,72.15
2019-05-26T17:29:52.694Z,72.46
2019-05-26T17:32:21.313Z,72.50
2019-05-26T17:34:49.823Z,72.80
2019-05-26T17:37:18.521Z,73.15
2019-05-26T17:39:47.097Z,73.34
2019-05-26T17:42:15.627Z,73.57
2019-05-26T17:44:44.246Z,73.88
2019-05-26T17:47:12.709Z,73.89
2019-05-26T17:49:41.372Z,74.17
2019-05-26T17:52:10.117Z,74.29
2019-05-26T17:54:38.677Z,74.73
2019-05-26T17:57:07.676Z,75.05
2019-05-26T17:59:36.284Z,74.96
2019-05-26T18:02:05.253Z,75.31
2019-05-26T18:04:33.801Z,75.51
2019-05-26T18:07:02.415Z,75.47
2019-05-26T18:09:43.252Z,75.84
2019-05-26T18:12:01.529Z,76.05
2019-05-26T18:14:30.143Z,76.41
2019-05-26T18:16:58.850Z,76.58
2019-05-26T18:19:30.008Z,76.50
2019-05-26T18:21:58.797Z,76.58
2019-05-26T18:24:27.413Z,76.67
2019-05-26T18:26:56.056Z,76.77
2019-05-26T18:29:24.599Z,76.99
2019-05-26T18:31:54.356Z,77.25
2019-05-26T18:34:22.981Z,77.03
2019-05-26T18:36:51.520Z,77.22
2019-05-26T18:39:20.171Z,77.24
2019-05-26T18:41:48.752Z,77.45
2019-05-26T18:44:17.286Z,77.67
2019-05-26T18:46:45.930Z,77.51
2019-05-26T18:49:14.561Z,77.59
2019-05-26T18:51:43.212Z,77.77
2019-05-26T18:54:11.985Z,78.03
2019-05-26T18:56:40.524Z,78.17
2019-05-26T18:59:09.095Z,78.47
2019-05-26T19:01:37.753Z,78.46
2019-05-26T19:04:06.397Z,78.70
2019-05-26T19:06:35.015Z,78.83
2019-05-26T19:09:05.094Z,78.89
2019-05-26T19:11:33.683Z,79.06
2019-05-26T19:14:02.344Z,79.04
2019-05-26T19:16:30.891Z,79.05
2019-05-26T19:18:59.440Z,79.18
2019-05-26T19:21:28.331Z,79.55
2019-05-26T19:23:56.878Z,79.39
2019-05-26T19:26:25.440Z,79.34
2019-05-26T19:28:53.991Z,79.45
2019-05-26T19:31:22.540Z,79.39
2019-05-26T19:33:51.359Z,79.62
2019-05-26T19:36:20.125Z,79.65
2019-05-26T19:38:48.603Z,79.80
2019-05-26T19:41:17.240Z,80.04
2019-05-26T19:43:45.769Z,80.05
2019-05-26T19:46:14.382Z,80.32
2019-05-26T19:48:42.993Z,80.42
2019-05-26T19:51:11.539Z,80.44
2019-05-26T19:53:40.086Z,80.44
2019-05-26T19:56:08.699Z,80.43
2019-05-26T19:58:37.318Z,80.57
2019-05-26T20:01:05.981Z,80.71
2019-05-26T20:03:34.588Z,80.86
2019-05-26T20:06:03.403Z,80.77
2019-05-26T20:08:32.024Z,80.67
2019-05-26T20:11:00.639Z,80.93
2019-05-26T20:13:29.199Z,81.10
2019-05-26T20:15:57.922Z,81.02
2019-05-26T20:18:26.479Z,81.00
2019-05-26T20:20:55.175Z,81.16
2019-05-26T20:23:23.797Z,81.17
2019-05-26T20:25:54.015Z,81.26
2019-05-26T20:28:22.558Z,81.25
2019-05-26T20:30:51.105Z,81.29
2019-05-26T20:33:19.731Z,81.52
2019-05-26T20:35:48.226Z,81.60
2019-05-26T20:38:16.775Z,81.67
2019-05-26T20:40:46.063Z,81.89
2019-05-26T20:43:14.671Z,81.99
2019-05-26T20:45:43.308Z,82.02
2019-05-26T20:48:11.867Z,82.04
2019-05-26T20:50:40.518Z,82.07
2019-05-26T20:53:08.998Z,82.22
2019-05-26T20:55:37.655Z,82.23
2019-05-26T20:58:06.290Z,82.11
2019-05-26T21:00:34.850Z,82.03
2019-05-26T21:03:03.494Z,81.92
2019-05-26T21:05:32.036Z,81.90
2019-05-26T21:08:00.670Z,81.90
2019-05-26T21:10:29.217Z,82.08
2019-05-26T21:12:58.029Z,82.22
2019-05-26T21:15:26.594Z,82.30
2019-05-26T21:17:55.937Z,82.36
2019-05-26T21:20:24.553Z,82.38
2019-05-26T21:22:53.097Z,82.65
2019-05-26T21:25:21.830Z,82.55
2019-05-26T21:27:50.513Z,82.55
2019-05-26T21:30:19.849Z,82.33
2019-05-26T21:32:48.529Z,82.35
2019-05-26T21:35:17.370Z,82.38
2019-05-26T21:37:45.951Z,82.55
2019-05-26T21:40:14.869Z,82.60
2019-05-26T21:42:44.945Z,82.73
2019-05-26T21:45:13.880Z,82.62
2019-05-26T21:47:42.502Z,82.52
2019-05-26T21:50:12.616Z,82.65
2019-05-26T21:52:42.650Z,82.73
2019-05-26T21:55:14.280Z,82.80
2019-05-26T21:57:42.887Z,82.50
2019-05-26T22:00:13.828Z,82.25
2019-05-26T22:02:42.448Z,82.17
2019-05-26T22:05:12.025Z,81.90
2019-05-26T22:07:41.539Z,81.77
2019-05-26T22:10:10.080Z,81.75
2019-05-26T22:12:38.646Z,81.69
2019-05-26T22:15:08.616Z,81.80
2019-05-26T22:17:37.191Z,82.04
2019-05-26T22:20:07.466Z,81.94
2019-05-26T22:22:36.094Z,82.16
2019-05-26T22:25:06.957Z,82.27
2019-05-26T22:27:35.606Z,82.42
2019-05-26T22:30:05.913Z,82.65
2019-05-26T22:32:34.547Z,82.86
2019-05-26T22:35:03.051Z,83.08
2019-05-26T22:37:31.649Z,83.29
2019-05-26T22:40:01.656Z,83.37
2019-05-26T22:42:30.542Z,83.56
2019-05-26T22:44:59.380Z,83.61
2019-05-26T22:47:27.878Z,83.62
2019-05-26T22:49:58.142Z,83.50
2019-05-26T22:52:26.644Z,83.47
2019-05-26T22:54:55.260Z,83.57
2019-05-26T22:57:23.779Z,83.35
2019-05-26T22:59:52.350Z,83.21
2019-05-26T23:02:20.965Z,83.32
2019-05-26T23:04:49.580Z,83.43
2019-05-26T23:07:18.124Z,83.49
2019-05-26T23:09:46.703Z,83.44
2019-05-26T23:12:15.414Z,83.68
2019-05-26T23:14:43.893Z,83.84
2019-05-26T23:17:14.150Z,83.94
2019-05-26T23:19:42.619Z,83.91
2019-05-26T23:22:11.160Z,83.85
2019-05-26T23:24:39.667Z,83.61
2019-05-26T23:27:08.286Z,83.72
2019-05-26T23:29:36.827Z,83.87
2019-05-26T23:32:05.465Z,83.92
2019-05-26T23:34:33.941Z,83.86
2019-05-26T23:37:02.647Z,83.89
2019-05-26T23:39:31.257Z,84.09
2019-05-26T23:42:02.746Z,84.19
2019-05-26T23:44:31.282Z,84.56
2019-05-26T23:46:59.918Z,84.38
2019-05-26T23:49:30.137Z,84.15
2019-05-26T23:51:58.689Z,83.87
2019-05-26T23:54:27.225Z,83.76
2019-05-26T23:56:55.918Z,83.86
2019-05-26T23:59:24.530Z,83.88
